Terminal Aerodrome Forecast
Issued by NWS

Home | Current Version | Previous Version | Text Only | Print | Product List | Glossary Off
Versions: 1 2 3 4 5 6 7 8 9 10 11 12 13 14 15 16 17 18 19 20 21

000
FTUS42 KMHX 181740
TAFOAJ
TAF
KOAJ 181740Z 1818/1918 20008KT P6SM VCTS SCT025CB BKN040
      TEMPO 1819/1822 4SM TS BKN020CB
     FM182300 18007KT P6SM SCT200
     FM190600 21005KT P6SM SCT050
     FM190900 21005KT P6SM SCT020
     FM191500 VRB04KT P6SM VCTS BKN035CB
      AMD LTD TO CLD VIS AND WIND=

USA.gov is the U.S. government's official web portal to all federal, state and local government web resources and services.